createdAt,value
2023-04-20T00:00:36.785Z,3.90
2023-04-20T00:03:07.412Z,3.40
2023-04-20T00:05:35.452Z,3.63
2023-04-20T00:08:03.418Z,3.60
2023-04-20T00:10:31.184Z,3.60
2023-04-20T00:12:58.870Z,3.60
2023-04-20T00:15:26.524Z,3.75
2023-04-20T00:17:54.276Z,3.60
2023-04-20T00:20:23.456Z,3.90
2023-04-20T00:22:51.246Z,3.63
2023-04-20T00:25:19.090Z,4.05
2023-04-20T00:27:46.875Z,3.28
2023-04-20T00:30:15.541Z,3.67
2023-04-20T00:32:43.240Z,3.70
2023-04-20T00:35:11.295Z,3.78
2023-04-20T00:37:40.426Z,3.88
2023-04-20T00:40:09.712Z,3.38
2023-04-20T00:42:40.585Z,3.60
2023-04-20T00:45:09.491Z,3.60
2023-04-20T00:47:37.270Z,3.55
2023-04-20T00:50:05.650Z,4.53
2023-04-20T00:52:33.705Z,4.03
2023-04-20T00:55:03.419Z,3.70
2023-04-20T00:57:32.134Z,3.55
2023-04-20T00:59:59.878Z,3.88
2023-04-20T01:02:27.844Z,4.00
2023-04-20T01:04:56.340Z,3.63
2023-04-20T01:07:24.055Z,3.92
2023-04-20T01:09:51.677Z,3.65
2023-04-20T01:12:20.817Z,3.70
2023-04-20T01:14:48.592Z,3.22
2023-04-20T01:17:17.755Z,3.70
2023-04-20T01:19:45.785Z,3.92
2023-04-20T01:22:17.516Z,3.40
2023-04-20T01:24:45.525Z,3.72
2023-04-20T01:27:13.570Z,3.95
2023-04-20T01:29:41.509Z,4.18
2023-04-20T01:32:09.281Z,3.70
2023-04-20T01:34:37.020Z,3.85
2023-04-20T01:37:08.140Z,4.20
2023-04-20T01:39:38.776Z,3.83
2023-04-20T01:42:06.901Z,4.18
2023-04-20T01:44:34.686Z,3.75
2023-04-20T01:47:02.401Z,3.95
2023-04-20T01:49:30.182Z,3.97
2023-04-20T01:51:57.873Z,3.90
2023-04-20T01:54:25.607Z,4.03
2023-04-20T01:56:54.650Z,4.13
2023-04-20T01:59:22.356Z,3.90
2023-04-20T02:01:50.084Z,4.32
2023-04-20T02:04:18.146Z,4.15
2023-04-20T02:06:46.018Z,4.07
2023-04-20T02:09:13.735Z,4.32
2023-04-20T02:11:41.417Z,4.40
2023-04-20T02:14:10.542Z,4.15
2023-04-20T02:16:38.627Z,4.25
2023-04-20T02:19:06.856Z,4.30
2023-04-20T02:21:34.525Z,4.32
2023-04-20T02:24:02.183Z,3.95
2023-04-20T02:26:29.900Z,4.13
2023-04-20T02:28:57.587Z,4.28
2023-04-20T02:31:26.743Z,4.18
2023-04-20T02:33:54.459Z,4.30
2023-04-20T02:36:22.216Z,4.15
2023-04-20T02:38:50.001Z,4.40
2023-04-20T02:41:17.770Z,4.57
2023-04-20T02:43:45.491Z,4.45
2023-04-20T02:46:13.259Z,4.13
2023-04-20T02:48:42.904Z,4.18
2023-04-20T02:51:10.622Z,4.63
2023-04-20T02:53:38.499Z,4.07
2023-04-20T02:56:06.552Z,4.25
2023-04-20T02:58:34.349Z,4.63
2023-04-20T03:01:02.570Z,4.43
2023-04-20T03:03:30.643Z,4.40
2023-04-20T03:05:59.985Z,4.20
2023-04-20T03:08:27.673Z,4.50
2023-04-20T03:10:55.325Z,4.47
2023-04-20T03:13:23.006Z,4.30
2023-04-20T03:15:50.683Z,4.30
2023-04-20T03:18:18.410Z,4.88
2023-04-20T03:20:46.171Z,4.45
2023-04-20T03:23:15.256Z,4.78
2023-04-20T03:25:43.668Z,4.38
2023-04-20T03:28:11.367Z,3.92
2023-04-20T03:30:39.139Z,4.35
2023-04-20T03:33:06.879Z,4.38
2023-04-20T03:35:34.608Z,4.43
2023-04-20T03:38:02.382Z,5.03
2023-04-20T03:40:31.426Z,4.38
2023-04-20T03:42:59.094Z,4.70
2023-04-20T03:45:26.808Z,4.10
2023-04-20T03:47:54.733Z,4.35
2023-04-20T03:50:22.510Z,4.65
2023-04-20T03:52:50.323Z,4.70
2023-04-20T03:55:18.113Z,4.63
2023-04-20T03:57:47.170Z,4.80
2023-04-20T04:00:16.470Z,5.13
2023-04-20T04:02:44.395Z,4.72
2023-04-20T04:05:12.252Z,4.68
2023-04-20T04:07:40.008Z,4.80
2023-04-20T04:10:08.823Z,4.32
2023-04-20T04:12:36.499Z,5.20
2023-04-20T04:15:06.523Z,4.43
2023-04-20T04:17:34.263Z,5.18
2023-04-20T04:20:01.971Z,4.47
2023-04-20T04:22:30.513Z,4.82
2023-04-20T04:24:58.325Z,4.40
2023-04-20T04:27:26.010Z,4.40
2023-04-20T04:29:54.374Z,4.53
2023-04-20T04:32:24.380Z,6.72
2023-04-20T04:34:53.021Z,5.15
2023-04-20T04:37:20.902Z,5.45
2023-04-20T04:39:48.800Z,4.63
2023-04-20T04:42:16.650Z,4.85
2023-04-20T04:44:45.603Z,5.32
2023-04-20T04:47:14.260Z,4.40
2023-04-20T04:49:43.359Z,5.30
2023-04-20T04:52:11.140Z,4.97
2023-04-20T04:54:38.983Z,4.82
2023-04-20T04:57:06.816Z,4.47
2023-04-20T04:59:34.536Z,4.43
2023-04-20T05:02:02.252Z,4.40
2023-04-20T05:04:30.269Z,4.88
2023-04-20T05:06:59.491Z,4.60
2023-04-20T05:09:33.273Z,5.20
2023-04-20T05:12:01.494Z,4.80
2023-04-20T05:14:29.153Z,5.05
2023-04-20T05:16:56.773Z,5.53
2023-04-20T05:19:24.488Z,4.90
2023-04-20T05:21:52.342Z,5.32
2023-04-20T05:24:21.438Z,4.68
2023-04-20T05:26:49.108Z,4.75
2023-04-20T05:29:17.761Z,5.32
2023-04-20T05:31:46.027Z,4.70
2023-04-20T05:34:13.800Z,4.43
2023-04-20T05:36:41.580Z,4.93
2023-04-20T05:39:10.519Z,4.50
2023-04-20T05:41:39.848Z,4.88
2023-04-20T05:44:07.536Z,5.15
2023-04-20T05:46:35.266Z,4.70
2023-04-20T05:49:03.022Z,4.85
2023-04-20T05:51:33.912Z,5.03
2023-04-20T05:54:01.686Z,5.32
2023-04-20T05:56:29.488Z,5.53
2023-04-20T05:58:59.345Z,5.53
2023-04-20T06:01:27.065Z,4.82
2023-04-20T06:03:54.909Z,4.75
2023-04-20T06:06:22.848Z,5.30
2023-04-20T06:08:50.984Z,5.82
2023-04-20T06:11:18.745Z,5.80
2023-04-20T06:13:46.571Z,5.78
2023-04-20T06:16:15.823Z,5.60
2023-04-20T06:18:43.556Z,5.35
2023-04-20T06:21:11.742Z,5.80
2023-04-20T06:23:39.528Z,5.47
2023-04-20T06:26:08.895Z,5.53
2023-04-20T06:28:37.581Z,5.78
2023-04-20T06:31:05.554Z,6.05
2023-04-20T06:33:35.653Z,5.30
2023-04-20T06:36:03.387Z,6.15
2023-04-20T06:38:31.409Z,5.53
2023-04-20T06:41:02.052Z,5.47
2023-04-20T06:43:30.289Z,6.07
2023-04-20T06:45:58.083Z,6.03
2023-04-20T06:48:32.063Z,6.53
2023-04-20T06:51:02.292Z,6.05
2023-04-20T06:53:30.107Z,6.68
2023-04-20T06:55:58.348Z,5.82
2023-04-20T06:58:26.024Z,5.53
2023-04-20T07:00:53.782Z,6.05
2023-04-20T07:03:21.808Z,5.40
2023-04-20T07:05:49.621Z,5.85
2023-04-20T07:08:19.039Z,5.55
2023-04-20T07:10:46.802Z,5.97
2023-04-20T07:13:14.611Z,5.90
2023-04-20T07:15:43.609Z,5.28
2023-04-20T07:18:11.334Z,5.65
2023-04-20T07:20:39.160Z,5.60
2023-04-20T07:23:06.958Z,6.10
2023-04-20T07:25:36.165Z,6.28
2023-04-20T07:28:04.004Z,5.60
2023-04-20T07:30:32.263Z,5.78
2023-04-20T07:33:00.142Z,5.78
2023-04-20T07:35:27.913Z,6.05
2023-04-20T07:37:55.837Z,5.85
2023-04-20T07:40:23.819Z,5.93
2023-04-20T07:42:53.038Z,5.43
2023-04-20T07:45:21.904Z,5.88
2023-04-20T07:47:51.714Z,5.63
2023-04-20T07:50:19.551Z,5.78
2023-04-20T07:52:47.570Z,5.65
2023-04-20T07:55:17.315Z,5.78
2023-04-20T07:57:45.320Z,5.53
2023-04-20T08:00:16.050Z,5.47
2023-04-20T08:02:44.040Z,6.00
2023-04-20T08:05:12.427Z,6.00
2023-04-20T08:07:40.768Z,6.35
2023-04-20T08:10:10.594Z,6.05
2023-04-20T08:12:40.741Z,5.93
2023-04-20T08:15:10.118Z,5.50
2023-04-20T08:17:39.324Z,6.32
2023-04-20T08:20:10.792Z,5.50
2023-04-20T08:22:39.561Z,5.60
2023-04-20T08:25:09.272Z,5.80
2023-04-20T08:27:37.059Z,5.75
2023-04-20T08:30:05.561Z,6.07
2023-04-20T08:32:33.504Z,5.80
2023-04-20T08:35:02.846Z,5.57
2023-04-20T08:37:32.660Z,5.63
2023-04-20T08:40:00.918Z,6.38
2023-04-20T08:42:28.699Z,5.65
2023-04-20T08:44:56.518Z,5.78
2023-04-20T08:47:25.228Z,5.43
2023-04-20T08:49:55.705Z,5.30
2023-04-20T08:52:24.829Z,5.72
2023-04-20T08:54:56.948Z,6.03
2023-04-20T08:57:25.857Z,6.18
2023-04-20T08:59:53.776Z,5.50
2023-04-20T09:02:22.014Z,6.05
2023-04-20T09:04:50.138Z,5.70
2023-04-20T09:07:19.280Z,5.63
2023-04-20T09:09:58.950Z,5.15
2023-04-20T09:12:27.951Z,5.50
2023-04-20T09:14:55.991Z,5.53
2023-04-20T09:17:33.906Z,6.03
2023-04-20T09:20:02.599Z,5.45
2023-04-20T09:22:32.091Z,6.50
2023-04-20T09:25:01.631Z,5.32
2023-04-20T09:27:29.327Z,5.18
2023-04-20T09:30:01.193Z,5.60
2023-04-20T09:32:29.592Z,5.53
2023-04-20T09:34:57.684Z,5.78
2023-04-20T09:37:25.722Z,5.43
2023-04-20T09:40:00.248Z,5.50
2023-04-20T09:42:30.530Z,5.70
2023-04-20T09:44:59.103Z,5.47
2023-04-20T09:47:27.370Z,5.80
2023-04-20T09:49:56.369Z,5.55
2023-04-20T09:52:27.377Z,5.43
2023-04-20T09:54:56.136Z,6.18
2023-04-20T09:57:26.093Z,5.70
2023-04-20T09:59:56.483Z,5.80
2023-04-20T10:02:24.362Z,6.28
2023-04-20T10:04:56.318Z,5.80
2023-04-20T10:07:25.976Z,5.75
2023-04-20T10:10:05.008Z,5.50
2023-04-20T10:12:33.244Z,5.10
2023-04-20T10:15:02.326Z,5.80
2023-04-20T10:17:34.385Z,5.35
2023-04-20T10:20:02.226Z,5.00
2023-04-20T10:22:33.085Z,5.68
2023-04-20T10:25:01.254Z,5.55
2023-04-20T10:27:32.126Z,5.65
2023-04-20T10:30:11.737Z,5.57
2023-04-20T10:32:39.454Z,5.47
2023-04-20T10:35:08.836Z,5.03
2023-04-20T10:37:37.252Z,5.43
2023-04-20T10:40:07.740Z,5.55
2023-04-20T10:42:43.461Z,5.40
2023-04-20T10:45:13.115Z,5.43
2023-04-20T10:47:41.713Z,5.57
2023-04-20T10:50:11.159Z,5.50
2023-04-20T10:52:40.234Z,5.35
2023-04-20T10:55:19.307Z,5.60
2023-04-20T10:57:46.996Z,5.28
2023-04-20T11:00:18.765Z,5.45
2023-04-20T11:02:51.179Z,5.33
2023-04-20T11:05:19.768Z,5.35
2023-04-20T11:07:54.589Z,4.50
2023-04-20T11:10:23.866Z,4.47
2023-04-20T11:12:52.086Z,4.47
2023-04-20T11:15:32.257Z,4.70
2023-04-20T11:18:07.950Z,5.30
2023-04-20T11:20:36.224Z,5.45
2023-04-20T11:23:05.956Z,5.85
2023-04-20T11:25:33.815Z,5.63
2023-04-20T11:28:08.631Z,5.32
2023-04-20T11:30:41.361Z,5.00
2023-04-20T11:33:09.738Z,5.50
2023-04-20T11:35:38.405Z,6.47
2023-04-20T11:38:06.333Z,4.75
2023-04-20T11:40:34.155Z,4.82
2023-04-20T11:43:02.180Z,4.30
2023-04-20T11:45:35.194Z,4.28
2023-04-20T11:48:06.359Z,4.07
2023-04-20T11:50:34.209Z,4.15
2023-04-20T11:53:02.331Z,4.35
2023-04-20T11:55:30.131Z,4.40
2023-04-20T11:57:57.886Z,4.20
2023-04-20T12:00:25.915Z,4.25
2023-04-20T12:02:53.938Z,4.53
2023-04-20T12:05:23.312Z,4.80
2023-04-20T12:07:51.237Z,4.57
2023-04-20T12:10:18.967Z,4.55
2023-04-20T12:12:46.890Z,4.38
2023-04-20T12:15:15.000Z,4.32
2023-04-20T12:17:43.032Z,4.45
2023-04-20T12:20:12.304Z,4.40
2023-04-20T12:22:42.007Z,4.35
2023-04-20T12:25:10.314Z,5.05
2023-04-20T12:27:38.398Z,4.90
2023-04-20T12:30:09.362Z,5.18
2023-04-20T12:32:37.302Z,5.40
2023-04-20T12:35:05.550Z,4.60
2023-04-20T12:37:33.734Z,6.22
2023-04-20T12:40:06.606Z,5.40
2023-04-20T12:42:34.556Z,5.13
2023-04-20T12:45:02.361Z,5.38
2023-04-20T12:47:30.643Z,5.30
2023-04-20T12:49:58.660Z,4.88
2023-04-20T12:52:26.705Z,4.88
2023-04-20T12:54:54.658Z,4.85
2023-04-20T12:57:23.996Z,4.60
2023-04-20T12:59:52.097Z,4.75
2023-04-20T13:02:20.317Z,5.40
2023-04-20T13:04:48.431Z,5.70
2023-04-20T13:07:16.269Z,5.30
2023-04-20T13:09:44.249Z,5.70
2023-04-20T13:12:12.598Z,5.97
2023-04-20T13:14:41.720Z,5.22
2023-04-20T13:17:09.812Z,4.85
2023-04-20T13:19:37.712Z,5.07
2023-04-20T13:22:06.665Z,5.03
2023-04-20T13:24:34.585Z,4.90
2023-04-20T13:27:02.498Z,4.70
2023-04-20T13:29:30.538Z,4.53
2023-04-20T13:31:59.806Z,4.68
2023-04-20T13:34:27.827Z,4.63
2023-04-20T13:36:55.947Z,4.95
2023-04-20T13:39:23.872Z,4.43
2023-04-20T13:41:51.765Z,4.65
2023-04-20T13:44:20.261Z,5.15
2023-04-20T13:46:49.015Z,4.97
2023-04-20T13:49:18.512Z,4.53
2023-04-20T13:51:46.292Z,5.55
2023-04-20T13:54:14.322Z,5.55
2023-04-20T13:56:42.301Z,5.70
2023-04-20T13:59:10.678Z,5.10
2023-04-20T14:01:38.954Z,5.20
2023-04-20T14:04:07.181Z,5.45
2023-04-20T14:06:36.492Z,5.28
2023-04-20T14:09:04.433Z,5.50
2023-04-20T14:11:32.666Z,6.30
2023-04-20T14:14:00.482Z,5.93
2023-04-20T14:16:28.624Z,5.60
2023-04-20T14:18:56.875Z,5.78
2023-04-20T14:21:24.667Z,6.00
2023-04-20T14:23:55.281Z,6.65
2023-04-20T14:26:23.154Z,6.25
2023-04-20T14:28:52.602Z,5.00
2023-04-20T14:31:20.742Z,4.72
2023-04-20T14:33:48.576Z,5.03
2023-04-20T14:36:16.272Z,5.22
2023-04-20T14:38:44.279Z,6.07
2023-04-20T14:41:13.563Z,5.22
2023-04-20T14:43:41.408Z,4.95
2023-04-20T14:46:09.890Z,5.40
2023-04-20T14:48:38.176Z,5.70
2023-04-20T14:51:06.390Z,5.82
2023-04-20T14:53:34.635Z,5.32
2023-04-20T14:56:03.261Z,6.47
2023-04-20T14:58:32.534Z,6.30
2023-04-20T15:01:00.809Z,6.13
2023-04-20T15:03:28.937Z,5.88
2023-04-20T15:06:01.389Z,6.22
2023-04-20T15:08:29.337Z,5.80
2023-04-20T15:10:57.423Z,5.75
2023-04-20T15:13:25.787Z,6.47
2023-04-20T15:15:55.477Z,5.15
2023-04-20T15:18:23.490Z,5.95
2023-04-20T15:20:52.336Z,5.55
2023-04-20T15:23:20.346Z,5.35
2023-04-20T15:25:48.312Z,5.75
2023-04-20T15:28:16.651Z,5.30
2023-04-20T15:30:44.791Z,5.28
2023-04-20T15:33:14.143Z,5.18
2023-04-20T15:35:42.244Z,4.90
2023-04-20T15:38:10.135Z,4.82
2023-04-20T15:40:38.768Z,4.55
2023-04-20T15:43:07.133Z,4.15
2023-04-20T15:45:35.051Z,4.30
2023-04-20T15:48:03.004Z,4.10
2023-04-20T15:50:32.253Z,4.30
2023-04-20T15:53:00.480Z,4.32
2023-04-20T15:55:29.157Z,4.50
2023-04-20T15:58:00.542Z,5.00
2023-04-20T16:00:28.672Z,4.97
2023-04-20T16:02:56.606Z,4.57
2023-04-20T16:05:24.910Z,4.45
2023-04-20T16:07:54.742Z,4.47
2023-04-20T16:10:23.679Z,4.50
2023-04-20T16:12:51.816Z,4.47
2023-04-20T16:15:20.098Z,4.82
2023-04-20T16:17:47.995Z,4.75
2023-04-20T16:20:16.065Z,4.50
2023-04-20T16:22:44.026Z,4.45
2023-04-20T16:25:22.495Z,4.40
2023-04-20T16:27:50.975Z,4.45
2023-04-20T16:30:18.931Z,4.35
2023-04-20T16:32:47.010Z,5.03
2023-04-20T16:35:15.050Z,5.18
2023-04-20T16:37:42.887Z,4.40
2023-04-20T16:40:11.613Z,4.68
2023-04-20T16:42:41.001Z,5.30
2023-04-20T16:45:09.482Z,4.93
2023-04-20T16:47:37.422Z,4.97
2023-04-20T16:50:07.639Z,5.25
2023-04-20T16:52:35.685Z,5.50
2023-04-20T16:55:04.004Z,5.60
2023-04-20T16:57:32.508Z,5.22
2023-04-20T17:00:01.824Z,5.22
2023-04-20T17:02:33.128Z,5.50
2023-04-20T17:05:01.271Z,5.35
2023-04-20T17:07:29.433Z,5.30
2023-04-20T17:09:57.427Z,5.35
2023-04-20T17:12:25.453Z,5.38
2023-04-20T17:14:53.359Z,5.60
2023-04-20T17:17:22.727Z,5.40
2023-04-20T17:19:50.651Z,5.60
2023-04-20T17:22:18.523Z,5.60
2023-04-20T17:24:46.472Z,5.45
2023-04-20T17:27:16.042Z,5.70
2023-04-20T17:29:44.961Z,5.47
2023-04-20T17:32:13.287Z,5.22
2023-04-20T17:34:48.156Z,5.32
2023-04-20T17:37:16.663Z,5.68
2023-04-20T17:39:44.831Z,6.20
2023-04-20T17:42:13.322Z,5.68
2023-04-20T17:44:41.423Z,5.72
2023-04-20T17:47:10.315Z,6.10
2023-04-20T17:49:41.194Z,5.93
2023-04-20T17:52:12.626Z,5.97
2023-04-20T17:54:40.566Z,6.45
2023-04-20T17:57:09.088Z,6.55
2023-04-20T17:59:37.032Z,6.10
2023-04-20T18:02:05.150Z,6.00
2023-04-20T18:04:33.456Z,6.88
2023-04-20T18:07:01.505Z,8.27
2023-04-20T18:09:30.819Z,10.30
2023-04-20T18:11:58.799Z,10.38
2023-04-20T18:14:27.197Z,9.43
2023-04-20T18:16:56.061Z,8.88
2023-04-20T18:19:23.904Z,7.15
2023-04-20T18:21:51.983Z,8.30
2023-04-20T18:24:20.046Z,8.02
2023-04-20T18:26:49.477Z,7.68
2023-04-20T18:29:17.414Z,7.53
2023-04-20T18:31:46.479Z,7.60
2023-04-20T18:34:16.194Z,7.65
2023-04-20T18:36:44.226Z,11.02
2023-04-20T18:39:12.017Z,8.80
2023-04-20T18:41:39.864Z,9.10
2023-04-20T18:44:09.146Z,9.43
2023-04-20T18:46:37.095Z,9.15
2023-04-20T18:49:04.928Z,8.05
2023-04-20T18:51:33.366Z,8.25
2023-04-20T18:54:01.369Z,7.43
2023-04-20T18:56:29.290Z,7.65
2023-04-20T18:58:59.246Z,7.43
2023-04-20T19:01:28.674Z,7.80
2023-04-20T19:03:56.917Z,7.47
2023-04-20T19:06:25.173Z,8.50
2023-04-20T19:08:53.061Z,8.70
2023-04-20T19:11:20.941Z,9.25
2023-04-20T19:13:48.804Z,8.52
2023-04-20T19:16:17.023Z,8.45
2023-04-20T19:18:48.384Z,8.63
2023-04-20T19:21:16.483Z,8.20
2023-04-20T19:23:44.519Z,8.52
2023-04-20T19:26:12.411Z,8.00
2023-04-20T19:28:40.754Z,8.55
2023-04-20T19:31:10.887Z,8.70
2023-04-20T19:33:38.959Z,8.45
2023-04-20T19:36:08.573Z,8.13
2023-04-20T19:38:38.671Z,9.80
2023-04-20T19:41:07.410Z,10.00
2023-04-20T19:43:36.301Z,9.18
2023-04-20T19:46:04.792Z,9.40
2023-04-20T19:48:32.664Z,11.07
2023-04-20T19:51:01.327Z,10.55
2023-04-20T19:53:30.722Z,10.63
2023-04-20T19:55:58.650Z,11.45
2023-04-20T19:58:26.576Z,10.60
2023-04-20T20:00:54.678Z,11.00
2023-04-20T20:03:23.289Z,9.95
2023-04-20T20:05:51.608Z,9.07
2023-04-20T20:08:19.460Z,9.27
2023-04-20T20:10:48.704Z,9.25
2023-04-20T20:13:16.905Z,9.98
2023-04-20T20:15:45.353Z,11.23
2023-04-20T20:18:14.316Z,9.48
2023-04-20T20:20:42.269Z,8.80
2023-04-20T20:23:10.291Z,9.05
2023-04-20T20:25:38.222Z,9.20
2023-04-20T20:28:07.525Z,9.05
2023-04-20T20:30:35.419Z,8.98
2023-04-20T20:33:03.858Z,8.95
2023-04-20T20:35:33.312Z,8.63
2023-04-20T20:38:01.379Z,10.15
2023-04-20T20:40:29.143Z,8.88
2023-04-20T20:42:57.513Z,8.85
2023-04-20T20:45:27.821Z,9.90
2023-04-20T20:47:55.730Z,9.15
2023-04-20T20:50:23.911Z,9.27
2023-04-20T20:52:51.783Z,9.00
2023-04-20T20:55:19.691Z,8.93
2023-04-20T20:57:47.703Z,9.45
2023-04-20T21:00:16.182Z,8.85
2023-04-20T21:02:45.861Z,8.98
2023-04-20T21:05:14.150Z,8.50
2023-04-20T21:07:42.465Z,8.00
2023-04-20T21:10:11.908Z,8.48
2023-04-20T21:12:39.980Z,8.95
2023-04-20T21:15:10.138Z,8.32
2023-04-20T21:17:37.965Z,8.55
2023-04-20T21:20:09.558Z,8.40
2023-04-20T21:22:37.587Z,8.52
2023-04-20T21:25:06.387Z,8.13
2023-04-20T21:27:34.335Z,8.50
2023-04-20T21:30:02.129Z,9.20
2023-04-20T21:32:30.064Z,8.25
2023-04-20T21:34:57.930Z,9.23
2023-04-20T21:37:27.172Z,8.82
2023-04-20T21:39:55.133Z,8.77
2023-04-20T21:42:22.907Z,9.23
2023-04-20T21:44:50.760Z,9.07
2023-04-20T21:47:18.784Z,8.40
2023-04-20T21:49:46.524Z,8.73
2023-04-20T21:52:14.310Z,8.65
2023-04-20T21:54:43.486Z,9.18
2023-04-20T21:57:11.346Z,8.77
2023-04-20T21:59:39.129Z,9.18
2023-04-20T22:02:07.133Z,8.25
2023-04-20T22:04:35.173Z,8.60
2023-04-20T22:07:03.160Z,8.52
2023-04-20T22:09:31.204Z,8.50
2023-04-20T22:12:02.051Z,8.88
2023-04-20T22:14:30.258Z,8.70
2023-04-20T22:16:58.028Z,8.75
2023-04-20T22:19:25.973Z,8.68
2023-04-20T22:21:53.897Z,8.80
2023-04-20T22:24:21.653Z,9.38
2023-04-20T22:26:49.475Z,8.77
2023-04-20T22:29:19.002Z,8.15
2023-04-20T22:31:47.149Z,8.32
2023-04-20T22:34:15.032Z,8.88
2023-04-20T22:36:42.763Z,9.23
2023-04-20T22:39:10.839Z,8.45
2023-04-20T22:41:38.706Z,8.35
2023-04-20T22:44:06.696Z,8.95
2023-04-20T22:46:35.868Z,8.93
2023-04-20T22:49:04.210Z,8.25
2023-04-20T22:51:31.946Z,8.68
2023-04-20T22:54:01.013Z,8.25
2023-04-20T22:56:29.465Z,8.75
2023-04-20T22:58:57.218Z,9.40
2023-04-20T23:01:25.286Z,8.52
2023-04-20T23:03:54.554Z,8.65
2023-04-20T23:06:22.814Z,8.38
2023-04-20T23:08:50.721Z,8.07
2023-04-20T23:11:18.874Z,9.00
2023-04-20T23:13:47.839Z,8.80
2023-04-20T23:16:15.637Z,8.77
2023-04-20T23:18:43.324Z,9.68
2023-04-20T23:21:13.870Z,9.52
2023-04-20T23:23:41.654Z,10.15
2023-04-20T23:26:09.671Z,9.15
2023-04-20T23:28:37.523Z,9.68
2023-04-20T23:31:05.468Z,9.98
2023-04-20T23:33:33.291Z,9.93
2023-04-20T23:36:01.034Z,8.82
2023-04-20T23:38:30.205Z,9.50
2023-04-20T23:40:57.964Z,9.88
2023-04-20T23:43:25.767Z,9.45
2023-04-20T23:45:53.570Z,10.02
2023-04-20T23:48:21.288Z,10.48
2023-04-20T23:50:49.827Z,10.13
2023-04-20T23:53:17.640Z,11.10
2023-04-20T23:55:51.782Z,10.93
2023-04-20T23:58:19.577Z,11.77
